sensor_id;sensor_type;location;lat;lon;timestamp;temperature;humidity
8862;DHT22;4799;50.996;4.754;2023-08-08T00:02:21;13.50;99.90
8862;DHT22;4799;50.996;4.754;2023-08-08T00:04:49;13.50;99.90
8862;DHT22;4799;50.996;4.754;2023-08-08T00:07:15;13.50;99.90
8862;DHT22;4799;50.996;4.754;2023-08-08T00:09:41;13.40;99.90
8862;DHT22;4799;50.996;4.754;2023-08-08T00:12:07;13.40;99.90
8862;DHT22;4799;50.996;4.754;2023-08-08T00:14:32;13.40;99.90
8862;DHT22;4799;50.996;4.754;2023-08-08T00:16:58;13.40;99.90
8862;DHT22;4799;50.996;4.754;2023-08-08T00:19:24;13.40;99.90
8862;DHT22;4799;50.996;4.754;2023-08-08T00:21:50;13.40;99.90
8862;DHT22;4799;50.996;4.754;2023-08-08T00:24:15;13.30;99.90
8862;DHT22;4799;50.996;4.754;2023-08-08T00:26:41;13.30;99.90
8862;DHT22;4799;50.996;4.754;2023-08-08T00:29:07;13.30;99.90
8862;DHT22;4799;50.996;4.754;2023-08-08T00:31:32;13.30;99.90
8862;DHT22;4799;50.996;4.754;2023-08-08T00:33:58;13.30;99.90
8862;DHT22;4799;50.996;4.754;2023-08-08T00:36:24;13.20;99.90
8862;DHT22;4799;50.996;4.754;2023-08-08T00:38:49;13.30;99.90
8862;DHT22;4799;50.996;4.754;2023-08-08T00:41:15;13.20;99.90
8862;DHT22;4799;50.996;4.754;2023-08-08T00:43:41;13.20;99.90
8862;DHT22;4799;50.996;4.754;2023-08-08T00:46:09;13.30;99.90
8862;DHT22;4799;50.996;4.754;2023-08-08T00:48:35;13.30;99.90
8862;DHT22;4799;50.996;4.754;2023-08-08T00:51:01;13.20;99.90
8862;DHT22;4799;50.996;4.754;2023-08-08T00:53:27;13.20;99.90
8862;DHT22;4799;50.996;4.754;2023-08-08T00:55:56;13.20;99.90
8862;DHT22;4799;50.996;4.754;2023-08-08T00:58:22;13.20;99.90
8862;DHT22;4799;50.996;4.754;2023-08-08T01:00:48;13.20;99.90
8862;DHT22;4799;50.996;4.754;2023-08-08T01:03:13;13.20;99.90
8862;DHT22;4799;50.996;4.754;2023-08-08T01:05:46;13.20;99.90
8862;DHT22;4799;50.996;4.754;2023-08-08T01:08:16;13.20;99.90
8862;DHT22;4799;50.996;4.754;2023-08-08T01:10:45;13.20;99.90
8862;DHT22;4799;50.996;4.754;2023-08-08T01:13:17;13.20;99.90
8862;DHT22;4799;50.996;4.754;2023-08-08T01:15:46;13.20;99.90
8862;DHT22;4799;50.996;4.754;2023-08-08T01:18:14;13.20;99.90
8862;DHT22;4799;50.996;4.754;2023-08-08T01:20:41;13.20;99.90
8862;DHT22;4799;50.996;4.754;2023-08-08T01:23:30;13.20;99.90
8862;DHT22;4799;50.996;4.754;2023-08-08T01:25:58;13.20;99.90
8862;DHT22;4799;50.996;4.754;2023-08-08T01:28:25;13.10;99.90
8862;DHT22;4799;50.996;4.754;2023-08-08T01:30:51;13.10;99.90
8862;DHT22;4799;50.996;4.754;2023-08-08T01:33:17;13.10;99.90
8862;DHT22;4799;50.996;4.754;2023-08-08T01:36:05;13.10;99.90
8862;DHT22;4799;50.996;4.754;2023-08-08T01:38:41;13.10;99.90
8862;DHT22;4799;50.996;4.754;2023-08-08T01:41:09;13.10;99.90
8862;DHT22;4799;50.996;4.754;2023-08-08T01:43:37;13.10;99.90
8862;DHT22;4799;50.996;4.754;2023-08-08T01:46:04;13.10;99.90
8862;DHT22;4799;50.996;4.754;2023-08-08T01:48:30;13.10;99.90
8862;DHT22;4799;50.996;4.754;2023-08-08T01:50:55;13.10;99.90
8862;DHT22;4799;50.996;4.754;2023-08-08T01:53:21;13.10;99.90
8862;DHT22;4799;50.996;4.754;2023-08-08T01:55:47;13.00;99.90
8862;DHT22;4799;50.996;4.754;2023-08-08T01:58:13;13.00;99.90
8862;DHT22;4799;50.996;4.754;2023-08-08T02:00:39;13.00;99.90
8862;DHT22;4799;50.996;4.754;2023-08-08T02:03:06;13.00;99.90
8862;DHT22;4799;50.996;4.754;2023-08-08T02:05:32;13.00;99.90
8862;DHT22;4799;50.996;4.754;2023-08-08T02:07:58;13.00;99.90
8862;DHT22;4799;50.996;4.754;2023-08-08T02:10:24;12.90;99.90
8862;DHT22;4799;50.996;4.754;2023-08-08T02:12:49;12.90;99.90
8862;DHT22;4799;50.996;4.754;2023-08-08T02:15:15;12.90;99.90
8862;DHT22;4799;50.996;4.754;2023-08-08T02:17:41;12.90;99.90
8862;DHT22;4799;50.996;4.754;2023-08-08T02:20:07;12.90;99.90
8862;DHT22;4799;50.996;4.754;2023-08-08T02:22:33;12.90;99.90
8862;DHT22;4799;50.996;4.754;2023-08-08T02:24:59;12.90;99.90
8862;DHT22;4799;50.996;4.754;2023-08-08T02:27:25;12.80;99.90
8862;DHT22;4799;50.996;4.754;2023-08-08T02:29:51;12.80;99.90
8862;DHT22;4799;50.996;4.754;2023-08-08T02:32:16;12.80;99.90
8862;DHT22;4799;50.996;4.754;2023-08-08T02:34:42;12.80;99.90
8862;DHT22;4799;50.996;4.754;2023-08-08T02:37:08;12.80;99.90
8862;DHT22;4799;50.996;4.754;2023-08-08T02:39:34;12.80;99.90
8862;DHT22;4799;50.996;4.754;2023-08-08T02:41:59;12.80;99.90
8862;DHT22;4799;50.996;4.754;2023-08-08T02:44:25;12.80;99.90
8862;DHT22;4799;50.996;4.754;2023-08-08T02:46:51;12.70;99.90
8862;DHT22;4799;50.996;4.754;2023-08-08T02:49:16;12.70;99.90
8862;DHT22;4799;50.996;4.754;2023-08-08T02:51:42;12.70;99.90
8862;DHT22;4799;50.996;4.754;2023-08-08T02:54:08;12.70;99.90
8862;DHT22;4799;50.996;4.754;2023-08-08T02:56:33;12.70;99.90
8862;DHT22;4799;50.996;4.754;2023-08-08T02:58:59;12.70;99.90
8862;DHT22;4799;50.996;4.754;2023-08-08T03:01:25;12.70;99.90
8862;DHT22;4799;50.996;4.754;2023-08-08T03:03:51;12.70;99.90
8862;DHT22;4799;50.996;4.754;2023-08-08T03:06:16;12.70;99.90
8862;DHT22;4799;50.996;4.754;2023-08-08T03:08:42;12.70;99.90
8862;DHT22;4799;50.996;4.754;2023-08-08T03:11:08;12.70;99.90
8862;DHT22;4799;50.996;4.754;2023-08-08T03:13:33;12.70;99.90
8862;DHT22;4799;50.996;4.754;2023-08-08T03:15:59;12.70;99.90
8862;DHT22;4799;50.996;4.754;2023-08-08T03:18:25;12.70;99.90
8862;DHT22;4799;50.996;4.754;2023-08-08T03:20:52;12.60;99.90
8862;DHT22;4799;50.996;4.754;2023-08-08T03:23:18;12.60;99.90
8862;DHT22;4799;50.996;4.754;2023-08-08T03:25:44;12.60;99.90
8862;DHT22;4799;50.996;4.754;2023-08-08T03:28:09;12.60;99.90
8862;DHT22;4799;50.996;4.754;2023-08-08T03:30:38;12.60;99.90
8862;DHT22;4799;50.996;4.754;2023-08-08T03:33:05;12.60;99.90
8862;DHT22;4799;50.996;4.754;2023-08-08T03:35:30;12.60;99.90
8862;DHT22;4799;50.996;4.754;2023-08-08T03:37:56;12.60;99.90
8862;DHT22;4799;50.996;4.754;2023-08-08T03:40:22;12.60;99.90
8862;DHT22;4799;50.996;4.754;2023-08-08T03:42:47;12.60;99.90
8862;DHT22;4799;50.996;4.754;2023-08-08T03:45:13;12.60;99.90
8862;DHT22;4799;50.996;4.754;2023-08-08T03:47:39;12.50;99.90
8862;DHT22;4799;50.996;4.754;2023-08-08T03:50:06;12.50;99.90
8862;DHT22;4799;50.996;4.754;2023-08-08T03:52:32;12.50;99.90
8862;DHT22;4799;50.996;4.754;2023-08-08T03:55:01;12.50;99.90
8862;DHT22;4799;50.996;4.754;2023-08-08T03:57:27;12.50;99.90
8862;DHT22;4799;50.996;4.754;2023-08-08T03:59:52;12.40;99.90
8862;DHT22;4799;50.996;4.754;2023-08-08T04:02:18;12.50;99.90
8862;DHT22;4799;50.996;4.754;2023-08-08T04:04:44;12.40;99.90
8862;DHT22;4799;50.996;4.754;2023-08-08T04:07:09;12.40;99.90
8862;DHT22;4799;50.996;4.754;2023-08-08T04:09:35;12.40;99.90
8862;DHT22;4799;50.996;4.754;2023-08-08T04:12:01;12.40;99.90
8862;DHT22;4799;50.996;4.754;2023-08-08T04:14:27;12.40;99.90
8862;DHT22;4799;50.996;4.754;2023-08-08T04:16:52;12.40;99.90
8862;DHT22;4799;50.996;4.754;2023-08-08T04:19:18;12.30;99.90
8862;DHT22;4799;50.996;4.754;2023-08-08T04:21:44;12.30;99.90
8862;DHT22;4799;50.996;4.754;2023-08-08T04:24:09;12.30;99.90
8862;DHT22;4799;50.996;4.754;2023-08-08T04:26:37;12.30;99.90
8862;DHT22;4799;50.996;4.754;2023-08-08T04:29:03;12.30;99.90
8862;DHT22;4799;50.996;4.754;2023-08-08T04:31:29;12.30;99.90
8862;DHT22;4799;50.996;4.754;2023-08-08T04:33:55;12.30;99.90
8862;DHT22;4799;50.996;4.754;2023-08-08T04:36:27;12.30;99.90
8862;DHT22;4799;50.996;4.754;2023-08-08T04:38:53;12.40;99.90
8862;DHT22;4799;50.996;4.754;2023-08-08T04:41:18;12.40;99.90
8862;DHT22;4799;50.996;4.754;2023-08-08T04:43:44;12.40;99.90
8862;DHT22;4799;50.996;4.754;2023-08-08T04:46:10;12.50;99.90
8862;DHT22;4799;50.996;4.754;2023-08-08T04:48:35;12.50;99.90
8862;DHT22;4799;50.996;4.754;2023-08-08T04:51:04;12.50;99.90
8862;DHT22;4799;50.996;4.754;2023-08-08T04:53:30;12.60;99.90
8862;DHT22;4799;50.996;4.754;2023-08-08T04:55:56;12.60;99.90
8862;DHT22;4799;50.996;4.754;2023-08-08T04:58:21;12.60;99.90
8862;DHT22;4799;50.996;4.754;2023-08-08T05:00:47;12.70;99.90
8862;DHT22;4799;50.996;4.754;2023-08-08T05:03:13;12.70;99.90
8862;DHT22;4799;50.996;4.754;2023-08-08T05:05:39;12.70;99.90
8862;DHT22;4799;50.996;4.754;2023-08-08T05:08:05;12.80;99.90
8862;DHT22;4799;50.996;4.754;2023-08-08T05:10:30;12.80;99.90
8862;DHT22;4799;50.996;4.754;2023-08-08T05:12:57;12.90;99.90
8862;DHT22;4799;50.996;4.754;2023-08-08T05:15:23;12.90;99.90
8862;DHT22;4799;50.996;4.754;2023-08-08T05:17:48;13.00;99.90
8862;DHT22;4799;50.996;4.754;2023-08-08T05:20:14;13.10;99.90
8862;DHT22;4799;50.996;4.754;2023-08-08T05:22:40;13.10;99.90
8862;DHT22;4799;50.996;4.754;2023-08-08T05:25:06;13.10;99.90
8862;DHT22;4799;50.996;4.754;2023-08-08T05:27:32;13.20;99.90
8862;DHT22;4799;50.996;4.754;2023-08-08T05:29:58;13.20;99.90
8862;DHT22;4799;50.996;4.754;2023-08-08T05:32:24;13.30;99.90
8862;DHT22;4799;50.996;4.754;2023-08-08T05:34:51;13.30;99.90
8862;DHT22;4799;50.996;4.754;2023-08-08T05:37:17;13.40;99.90
8862;DHT22;4799;50.996;4.754;2023-08-08T05:39:42;13.50;99.90
8862;DHT22;4799;50.996;4.754;2023-08-08T05:42:08;13.50;99.90
8862;DHT22;4799;50.996;4.754;2023-08-08T05:44:34;13.60;99.90
8862;DHT22;4799;50.996;4.754;2023-08-08T05:46:59;13.70;99.90
8862;DHT22;4799;50.996;4.754;2023-08-08T05:49:25;13.70;99.90
8862;DHT22;4799;50.996;4.754;2023-08-08T05:51:51;13.80;99.90
8862;DHT22;4799;50.996;4.754;2023-08-08T05:54:16;13.90;99.90
8862;DHT22;4799;50.996;4.754;2023-08-08T05:56:42;14.10;99.90
8862;DHT22;4799;50.996;4.754;2023-08-08T05:59:08;14.20;99.90
8862;DHT22;4799;50.996;4.754;2023-08-08T06:01:34;14.40;99.90
8862;DHT22;4799;50.996;4.754;2023-08-08T06:04:00;14.50;99.90
8862;DHT22;4799;50.996;4.754;2023-08-08T06:06:26;14.60;99.90
8862;DHT22;4799;50.996;4.754;2023-08-08T06:08:52;14.70;99.90
8862;DHT22;4799;50.996;4.754;2023-08-08T06:11:18;14.80;99.90
8862;DHT22;4799;50.996;4.754;2023-08-08T06:13:44;14.90;99.90
8862;DHT22;4799;50.996;4.754;2023-08-08T06:16:09;15.10;99.90
8862;DHT22;4799;50.996;4.754;2023-08-08T06:18:35;15.30;99.90
8862;DHT22;4799;50.996;4.754;2023-08-08T06:21:01;15.50;99.90
8862;DHT22;4799;50.996;4.754;2023-08-08T06:23:27;15.60;99.90
8862;DHT22;4799;50.996;4.754;2023-08-08T06:25:53;15.70;99.90
8862;DHT22;4799;50.996;4.754;2023-08-08T06:28:19;15.80;99.90
8862;DHT22;4799;50.996;4.754;2023-08-08T06:30:45;15.90;99.90
8862;DHT22;4799;50.996;4.754;2023-08-08T06:33:11;15.90;99.90
8862;DHT22;4799;50.996;4.754;2023-08-08T06:35:37;16.00;99.90
8862;DHT22;4799;50.996;4.754;2023-08-08T06:38:03;16.10;99.90
8862;DHT22;4799;50.996;4.754;2023-08-08T06:40:28;16.20;99.90
8862;DHT22;4799;50.996;4.754;2023-08-08T06:42:54;16.30;99.90
8862;DHT22;4799;50.996;4.754;2023-08-08T06:45:21;16.30;99.90
8862;DHT22;4799;50.996;4.754;2023-08-08T06:47:47;16.30;99.90
8862;DHT22;4799;50.996;4.754;2023-08-08T06:50:13;16.30;99.90
8862;DHT22;4799;50.996;4.754;2023-08-08T06:52:38;16.40;99.90
8862;DHT22;4799;50.996;4.754;2023-08-08T06:55:04;16.50;99.90
8862;DHT22;4799;50.996;4.754;2023-08-08T06:57:33;16.60;99.90
8862;DHT22;4799;50.996;4.754;2023-08-08T06:59:59;16.70;99.90
8862;DHT22;4799;50.996;4.754;2023-08-08T07:02:25;16.70;99.90
8862;DHT22;4799;50.996;4.754;2023-08-08T07:04:50;16.90;99.90
8862;DHT22;4799;50.996;4.754;2023-08-08T07:07:17;17.00;99.90
8862;DHT22;4799;50.996;4.754;2023-08-08T07:09:42;17.10;99.90
8862;DHT22;4799;50.996;4.754;2023-08-08T07:12:09;17.10;99.90
8862;DHT22;4799;50.996;4.754;2023-08-08T07:14:34;17.30;99.90
8862;DHT22;4799;50.996;4.754;2023-08-08T07:17:00;17.40;99.90
8862;DHT22;4799;50.996;4.754;2023-08-08T07:19:28;17.50;99.90
8862;DHT22;4799;50.996;4.754;2023-08-08T07:21:54;17.70;99.90
8862;DHT22;4799;50.996;4.754;2023-08-08T07:24:19;17.80;99.90
8862;DHT22;4799;50.996;4.754;2023-08-08T07:26:46;17.90;99.90
8862;DHT22;4799;50.996;4.754;2023-08-08T07:29:11;18.00;99.90
8862;DHT22;4799;50.996;4.754;2023-08-08T07:31:37;18.10;99.90
8862;DHT22;4799;50.996;4.754;2023-08-08T07:34:03;18.20;99.90
8862;DHT22;4799;50.996;4.754;2023-08-08T07:36:29;18.40;99.90
8862;DHT22;4799;50.996;4.754;2023-08-08T07:38:54;18.50;99.90
8862;DHT22;4799;50.996;4.754;2023-08-08T07:41:26;18.70;99.90
8862;DHT22;4799;50.996;4.754;2023-08-08T07:43:52;18.80;99.90
8862;DHT22;4799;50.996;4.754;2023-08-08T07:46:18;18.90;99.90
8862;DHT22;4799;50.996;4.754;2023-08-08T07:48:43;18.90;99.90
8862;DHT22;4799;50.996;4.754;2023-08-08T07:51:09;19.00;99.90
8862;DHT22;4799;50.996;4.754;2023-08-08T07:53:35;19.10;99.90
8862;DHT22;4799;50.996;4.754;2023-08-08T07:56:01;19.20;99.90
8862;DHT22;4799;50.996;4.754;2023-08-08T07:58:26;19.20;99.90
8862;DHT22;4799;50.996;4.754;2023-08-08T08:00:53;19.30;99.90
8862;DHT22;4799;50.996;4.754;2023-08-08T08:03:19;19.40;99.90
8862;DHT22;4799;50.996;4.754;2023-08-08T08:05:45;19.50;99.90
8862;DHT22;4799;50.996;4.754;2023-08-08T08:08:11;19.60;99.90
8862;DHT22;4799;50.996;4.754;2023-08-08T08:10:36;19.60;99.90
8862;DHT22;4799;50.996;4.754;2023-08-08T08:13:02;19.80;99.90
8862;DHT22;4799;50.996;4.754;2023-08-08T08:15:28;19.90;99.90
8862;DHT22;4799;50.996;4.754;2023-08-08T08:17:54;19.90;99.90
8862;DHT22;4799;50.996;4.754;2023-08-08T08:20:20;19.90;99.90
8862;DHT22;4799;50.996;4.754;2023-08-08T08:22:46;19.90;99.90
8862;DHT22;4799;50.996;4.754;2023-08-08T08:25:13;19.90;99.90
8862;DHT22;4799;50.996;4.754;2023-08-08T08:27:39;19.80;99.90
8862;DHT22;4799;50.996;4.754;2023-08-08T08:30:06;19.80;99.90
8862;DHT22;4799;50.996;4.754;2023-08-08T08:32:34;19.90;99.90
8862;DHT22;4799;50.996;4.754;2023-08-08T08:35:01;20.10;99.90
8862;DHT22;4799;50.996;4.754;2023-08-08T08:37:28;20.20;99.90
8862;DHT22;4799;50.996;4.754;2023-08-08T08:39:53;20.40;99.90
8862;DHT22;4799;50.996;4.754;2023-08-08T08:42:19;20.50;99.90
8862;DHT22;4799;50.996;4.754;2023-08-08T08:44:46;20.50;99.90
8862;DHT22;4799;50.996;4.754;2023-08-08T08:47:13;20.50;99.90
8862;DHT22;4799;50.996;4.754;2023-08-08T08:49:42;20.40;99.90
8862;DHT22;4799;50.996;4.754;2023-08-08T08:52:09;20.50;99.90
8862;DHT22;4799;50.996;4.754;2023-08-08T08:54:34;20.60;99.90
8862;DHT22;4799;50.996;4.754;2023-08-08T08:57:01;20.50;99.90
8862;DHT22;4799;50.996;4.754;2023-08-08T08:59:26;20.50;99.90
8862;DHT22;4799;50.996;4.754;2023-08-08T09:01:53;20.60;99.90
8862;DHT22;4799;50.996;4.754;2023-08-08T09:04:20;20.60;99.90
8862;DHT22;4799;50.996;4.754;2023-08-08T09:06:48;20.70;99.90
8862;DHT22;4799;50.996;4.754;2023-08-08T09:09:14;20.80;99.90
8862;DHT22;4799;50.996;4.754;2023-08-08T09:11:51;20.90;99.90
8862;DHT22;4799;50.996;4.754;2023-08-08T09:14:25;21.10;99.90
8862;DHT22;4799;50.996;4.754;2023-08-08T09:16:52;21.20;99.90
8862;DHT22;4799;50.996;4.754;2023-08-08T09:19:19;21.20;99.90
8862;DHT22;4799;50.996;4.754;2023-08-08T09:21:46;21.30;99.90
8862;DHT22;4799;50.996;4.754;2023-08-08T09:24:12;21.30;99.90
8862;DHT22;4799;50.996;4.754;2023-08-08T09:26:42;21.40;99.90
8862;DHT22;4799;50.996;4.754;2023-08-08T09:29:10;21.60;99.90
8862;DHT22;4799;50.996;4.754;2023-08-08T09:31:36;21.70;99.90
8862;DHT22;4799;50.996;4.754;2023-08-08T09:34:03;21.80;99.90
8862;DHT22;4799;50.996;4.754;2023-08-08T09:36:30;21.90;99.90
8862;DHT22;4799;50.996;4.754;2023-08-08T09:38:56;22.10;99.90
8862;DHT22;4799;50.996;4.754;2023-08-08T09:41:23;22.30;99.90
8862;DHT22;4799;50.996;4.754;2023-08-08T09:43:50;22.30;99.90
8862;DHT22;4799;50.996;4.754;2023-08-08T09:46:16;22.40;99.90
8862;DHT22;4799;50.996;4.754;2023-08-08T09:48:43;22.50;99.90
8862;DHT22;4799;50.996;4.754;2023-08-08T09:51:10;22.70;99.90
8862;DHT22;4799;50.996;4.754;2023-08-08T09:53:36;22.70;99.90
8862;DHT22;4799;50.996;4.754;2023-08-08T09:56:04;22.70;99.90
8862;DHT22;4799;50.996;4.754;2023-08-08T09:58:30;22.50;99.90
8862;DHT22;4799;50.996;4.754;2023-08-08T10:00:56;22.30;99.90
8862;DHT22;4799;50.996;4.754;2023-08-08T10:03:22;22.10;99.90
8862;DHT22;4799;50.996;4.754;2023-08-08T10:05:48;21.80;99.90
8862;DHT22;4799;50.996;4.754;2023-08-08T10:08:18;21.50;99.90
8862;DHT22;4799;50.996;4.754;2023-08-08T10:10:45;21.10;99.90
8862;DHT22;4799;50.996;4.754;2023-08-08T10:13:25;20.80;99.90
8862;DHT22;4799;50.996;4.754;2023-08-08T10:15:52;20.60;99.90
8862;DHT22;4799;50.996;4.754;2023-08-08T10:18:21;20.50;99.90
8862;DHT22;4799;50.996;4.754;2023-08-08T10:20:47;20.40;99.90
8862;DHT22;4799;50.996;4.754;2023-08-08T10:23:15;20.30;99.90
8862;DHT22;4799;50.996;4.754;2023-08-08T10:25:59;20.30;99.90
8862;DHT22;4799;50.996;4.754;2023-08-08T10:28:26;20.50;99.90
8862;DHT22;4799;50.996;4.754;2023-08-08T10:30:53;20.70;99.90
8862;DHT22;4799;50.996;4.754;2023-08-08T10:36:00;20.80;99.90
8862;DHT22;4799;50.996;4.754;2023-08-08T10:38:27;21.00;99.90
8862;DHT22;4799;50.996;4.754;2023-08-08T10:41:03;21.10;99.90
8862;DHT22;4799;50.996;4.754;2023-08-08T10:43:30;21.10;99.90
8862;DHT22;4799;50.996;4.754;2023-08-08T10:46:03;21.00;99.90
8862;DHT22;4799;50.996;4.754;2023-08-08T10:48:30;20.80;99.90
8862;DHT22;4799;50.996;4.754;2023-08-08T10:50:58;20.60;99.90
8862;DHT22;4799;50.996;4.754;2023-08-08T10:53:28;20.50;99.90
8862;DHT22;4799;50.996;4.754;2023-08-08T10:56:03;20.50;99.90
8862;DHT22;4799;50.996;4.754;2023-08-08T10:58:39;20.60;99.90
8862;DHT22;4799;50.996;4.754;2023-08-08T11:01:06;20.60;99.90
8862;DHT22;4799;50.996;4.754;2023-08-08T11:03:39;20.70;99.90
8862;DHT22;4799;50.996;4.754;2023-08-08T11:06:09;20.70;99.90
8862;DHT22;4799;50.996;4.754;2023-08-08T11:08:37;20.70;99.90
8862;DHT22;4799;50.996;4.754;2023-08-08T11:11:06;20.80;99.90
8862;DHT22;4799;50.996;4.754;2023-08-08T11:13:32;20.90;99.90
8862;DHT22;4799;50.996;4.754;2023-08-08T11:15:58;21.20;99.90
8862;DHT22;4799;50.996;4.754;2023-08-08T11:18:27;21.40;99.90
8862;DHT22;4799;50.996;4.754;2023-08-08T11:20:53;21.60;99.90
8862;DHT22;4799;50.996;4.754;2023-08-08T11:23:19;21.60;99.90
8862;DHT22;4799;50.996;4.754;2023-08-08T11:25:46;21.80;99.90
8862;DHT22;4799;50.996;4.754;2023-08-08T11:28:13;22.00;99.90
8862;DHT22;4799;50.996;4.754;2023-08-08T11:30:43;22.10;99.90
8862;DHT22;4799;50.996;4.754;2023-08-08T11:33:13;22.20;99.80
8862;DHT22;4799;50.996;4.754;2023-08-08T11:35:44;22.40;99.80
8862;DHT22;4799;50.996;4.754;2023-08-08T11:38:13;22.50;98.60
8862;DHT22;4799;50.996;4.754;2023-08-08T11:40:39;22.60;98.70
8862;DHT22;4799;50.996;4.754;2023-08-08T11:43:05;22.60;97.60
8862;DHT22;4799;50.996;4.754;2023-08-08T11:45:32;22.60;96.10
8862;DHT22;4799;50.996;4.754;2023-08-08T11:47:59;22.70;96.30
8862;DHT22;4799;50.996;4.754;2023-08-08T11:50:26;22.70;95.00
8862;DHT22;4799;50.996;4.754;2023-08-08T11:52:54;22.80;94.70
8862;DHT22;4799;50.996;4.754;2023-08-08T11:55:21;22.90;93.70
8862;DHT22;4799;50.996;4.754;2023-08-08T11:57:54;22.80;91.60
8862;DHT22;4799;50.996;4.754;2023-08-08T12:00:27;22.60;91.10
8862;DHT22;4799;50.996;4.754;2023-08-08T12:02:53;22.40;90.50
8862;DHT22;4799;50.996;4.754;2023-08-08T12:05:21;22.20;91.40
8862;DHT22;4799;50.996;4.754;2023-08-08T12:07:48;22.00;92.70
8862;DHT22;4799;50.996;4.754;2023-08-08T12:10:16;22.00;93.50
8862;DHT22;4799;50.996;4.754;2023-08-08T12:12:43;22.00;94.00
8862;DHT22;4799;50.996;4.754;2023-08-08T12:15:10;22.00;94.30
8862;DHT22;4799;50.996;4.754;2023-08-08T12:17:36;22.20;94.30
8862;DHT22;4799;50.996;4.754;2023-08-08T12:20:07;22.40;93.90
8862;DHT22;4799;50.996;4.754;2023-08-08T12:22:33;22.80;93.20
8862;DHT22;4799;50.996;4.754;2023-08-08T12:24:59;23.10;92.40
8862;DHT22;4799;50.996;4.754;2023-08-08T12:27:25;23.20;90.80
8862;DHT22;4799;50.996;4.754;2023-08-08T12:29:51;23.40;89.80
8862;DHT22;4799;50.996;4.754;2023-08-08T12:32:20;23.40;84.80
8862;DHT22;4799;50.996;4.754;2023-08-08T12:34:49;23.50;82.90
8862;DHT22;4799;50.996;4.754;2023-08-08T12:37:15;23.40;81.70
8862;DHT22;4799;50.996;4.754;2023-08-08T12:39:41;23.40;80.40
8862;DHT22;4799;50.996;4.754;2023-08-08T12:42:07;23.30;78.90
8862;DHT22;4799;50.996;4.754;2023-08-08T12:44:33;23.30;80.00
8862;DHT22;4799;50.996;4.754;2023-08-08T12:46:58;23.30;81.50
8862;DHT22;4799;50.996;4.754;2023-08-08T12:49:24;23.40;82.50
8862;DHT22;4799;50.996;4.754;2023-08-08T12:51:50;23.40;81.40
8862;DHT22;4799;50.996;4.754;2023-08-08T12:54:17;23.30;80.00
8862;DHT22;4799;50.996;4.754;2023-08-08T12:56:43;23.40;79.70
8862;DHT22;4799;50.996;4.754;2023-08-08T12:59:09;23.30;81.10
8862;DHT22;4799;50.996;4.754;2023-08-08T13:01:35;23.50;81.10
8862;DHT22;4799;50.996;4.754;2023-08-08T13:04:00;23.70;79.60
8862;DHT22;4799;50.996;4.754;2023-08-08T13:06:26;23.80;79.40
8862;DHT22;4799;50.996;4.754;2023-08-08T13:08:52;24.00;78.70
8862;DHT22;4799;50.996;4.754;2023-08-08T13:11:18;23.90;77.20
8862;DHT22;4799;50.996;4.754;2023-08-08T13:13:44;24.00;77.30
8862;DHT22;4799;50.996;4.754;2023-08-08T13:16:09;24.10;78.00
8862;DHT22;4799;50.996;4.754;2023-08-08T13:18:36;24.00;77.30
8862;DHT22;4799;50.996;4.754;2023-08-08T13:21:02;23.90;77.20
8862;DHT22;4799;50.996;4.754;2023-08-08T13:23:27;23.80;75.00
8862;DHT22;4799;50.996;4.754;2023-08-08T13:25:54;23.70;75.40
8862;DHT22;4799;50.996;4.754;2023-08-08T13:28:20;23.60;75.20
8862;DHT22;4799;50.996;4.754;2023-08-08T13:30:45;23.60;77.10
8862;DHT22;4799;50.996;4.754;2023-08-08T13:33:11;23.60;78.10
8862;DHT22;4799;50.996;4.754;2023-08-08T13:35:37;23.70;79.30
8862;DHT22;4799;50.996;4.754;2023-08-08T13:38:03;23.80;77.00
8862;DHT22;4799;50.996;4.754;2023-08-08T13:40:29;23.80;75.10
8862;DHT22;4799;50.996;4.754;2023-08-08T13:42:54;23.80;74.40
8862;DHT22;4799;50.996;4.754;2023-08-08T13:45:20;23.70;74.30
8862;DHT22;4799;50.996;4.754;2023-08-08T13:47:46;23.70;75.40
8862;DHT22;4799;50.996;4.754;2023-08-08T13:50:13;23.60;76.50
8862;DHT22;4799;50.996;4.754;2023-08-08T13:52:40;23.70;77.70
8862;DHT22;4799;50.996;4.754;2023-08-08T13:55:07;23.80;77.00
8862;DHT22;4799;50.996;4.754;2023-08-08T13:57:33;23.80;75.30
8862;DHT22;4799;50.996;4.754;2023-08-08T13:59:58;23.80;74.60
8862;DHT22;4799;50.996;4.754;2023-08-08T14:02:24;23.90;75.80
8862;DHT22;4799;50.996;4.754;2023-08-08T14:04:50;24.00;75.80
8862;DHT22;4799;50.996;4.754;2023-08-08T14:07:16;24.10;75.70
8862;DHT22;4799;50.996;4.754;2023-08-08T14:09:41;24.20;75.30
8862;DHT22;4799;50.996;4.754;2023-08-08T14:12:07;24.30;75.10
8862;DHT22;4799;50.996;4.754;2023-08-08T14:14:33;24.20;74.80
8862;DHT22;4799;50.996;4.754;2023-08-08T14:16:59;24.20;75.40
8862;DHT22;4799;50.996;4.754;2023-08-08T14:19:24;24.20;76.20
8862;DHT22;4799;50.996;4.754;2023-08-08T14:21:50;24.20;77.40
8862;DHT22;4799;50.996;4.754;2023-08-08T14:24:16;24.30;77.50
8862;DHT22;4799;50.996;4.754;2023-08-08T14:26:41;24.20;77.60
8862;DHT22;4799;50.996;4.754;2023-08-08T14:29:07;24.20;73.70
8862;DHT22;4799;50.996;4.754;2023-08-08T14:31:34;24.20;74.80
8862;DHT22;4799;50.996;4.754;2023-08-08T14:34:00;24.10;75.10
8862;DHT22;4799;50.996;4.754;2023-08-08T14:36:25;24.00;75.70
8862;DHT22;4799;50.996;4.754;2023-08-08T14:38:51;23.90;76.50
8862;DHT22;4799;50.996;4.754;2023-08-08T14:41:17;23.80;76.80
8862;DHT22;4799;50.996;4.754;2023-08-08T14:43:42;23.70;77.60
8862;DHT22;4799;50.996;4.754;2023-08-08T14:46:08;23.70;78.10
8862;DHT22;4799;50.996;4.754;2023-08-08T14:48:34;23.80;79.00
8862;DHT22;4799;50.996;4.754;2023-08-08T14:51:01;23.90;79.60
8862;DHT22;4799;50.996;4.754;2023-08-08T14:53:27;23.80;80.00
8862;DHT22;4799;50.996;4.754;2023-08-08T14:55:52;23.70;80.30
8862;DHT22;4799;50.996;4.754;2023-08-08T14:58:18;23.70;81.40
8862;DHT22;4799;50.996;4.754;2023-08-08T15:00:44;23.60;82.70
8862;DHT22;4799;50.996;4.754;2023-08-08T15:03:10;23.50;83.70
8862;DHT22;4799;50.996;4.754;2023-08-08T15:05:36;23.40;84.30
8862;DHT22;4799;50.996;4.754;2023-08-08T15:08:02;23.30;85.60
8862;DHT22;4799;50.996;4.754;2023-08-08T15:10:28;23.20;85.00
8862;DHT22;4799;50.996;4.754;2023-08-08T15:12:54;23.10;86.50
8862;DHT22;4799;50.996;4.754;2023-08-08T15:15:20;23.10;86.80
8862;DHT22;4799;50.996;4.754;2023-08-08T15:17:48;23.00;86.70
8862;DHT22;4799;50.996;4.754;2023-08-08T15:20:14;22.90;86.80
8862;DHT22;4799;50.996;4.754;2023-08-08T15:22:40;22.80;87.70
8862;DHT22;4799;50.996;4.754;2023-08-08T15:25:06;22.80;87.80
8862;DHT22;4799;50.996;4.754;2023-08-08T15:27:31;22.80;89.10
8862;DHT22;4799;50.996;4.754;2023-08-08T15:29:57;22.70;89.60
8862;DHT22;4799;50.996;4.754;2023-08-08T15:32:23;22.60;89.70
8862;DHT22;4799;50.996;4.754;2023-08-08T15:34:49;22.50;90.00
8862;DHT22;4799;50.996;4.754;2023-08-08T15:37:14;22.30;90.60
8862;DHT22;4799;50.996;4.754;2023-08-08T15:39:40;22.30;91.20
8862;DHT22;4799;50.996;4.754;2023-08-08T15:42:06;22.20;91.10
8862;DHT22;4799;50.996;4.754;2023-08-08T15:44:32;22.10;91.20
8862;DHT22;4799;50.996;4.754;2023-08-08T15:46:58;22.00;91.40
8862;DHT22;4799;50.996;4.754;2023-08-08T15:49:24;21.90;91.70
8862;DHT22;4799;50.996;4.754;2023-08-08T15:51:50;22.00;92.20
8862;DHT22;4799;50.996;4.754;2023-08-08T15:54:15;22.00;92.30
8862;DHT22;4799;50.996;4.754;2023-08-08T15:56:42;22.00;92.50
8862;DHT22;4799;50.996;4.754;2023-08-08T15:59:08;22.00;92.90
8862;DHT22;4799;50.996;4.754;2023-08-08T16:01:34;22.10;93.30